Main page
METAR-TAF:

METAR-TAF

Airports :

Waterford, Ireland

Waterford Airport

latitude: 52-11-14N, longitude: 7-05-13W, elevation: 36 m

Current weather observation

The report was made 6 hours and 3 minutes ago, at 20:30 UTC
Wind 3 kt from the North/Northwest
Temperature 17°C
Humidity 77%
Pressure 1016 hPa
Visibility 10 km or more
no clouds below 1500 m and no cumulonimbus

METAR: EIWF 232030Z 33003KT CAVOK 17/13 Q1016

Time: 03:33 (02:33 UTC)

Forecast

The report was made 3 hours and 33 minutes ago, at 23:00 UTC
Forecast valid from 24 at 00 UTC to 24 at 09 UTC
Wind 5 kt from the North
Visibility 10 km or more
Scattered clouds at a height of 4000 ft

TAF: EIWF 232300Z 2400/2409 35005KT 9999 SCT040

Weather observations and forecasts of more than 4000 airports (METAR and TAF reports).

The available stations are represented by yellow and red dots on the map.

Hover mouse over dot to see the name of the station.

Then click to see weather observations and forecasts.

To change the map : click on the green buttons with a black cross to zoom in, on the green button with a dash to zoom out, or on the green arrows for adjacent maps.


METAR-TAF: